Time;durP1;ratioP1;P1;durP2;ratioP2;P2;SDS_P1;SDS_P2;PMS_P1;PMS_P2;Temp;Humidity;BMP_temperature;BMP_pressure;BME280_temperature;BME280_humidity;BME280_pressure;Samples;Min_cycle;Max_cycle;Signal;HPM_P1;HPM_P2
2022/05/05 00:01:41;;;;;;;15.32;7.78;;;;;;;15.30;56.08;100097.06;5038441;28;20031;-89
2022/05/05 00:04:07;;;;;;;12.38;7.78;;;;;;;15.25;56.42;100098.56;5038257;28;20029;-91
2022/05/05 00:06:33;;;;;;;9.52;6.80;;;;;;;15.21;56.94;100099.91;5038351;28;20512;-89
2022/05/05 00:08:58;;;;;;;10.63;7.32;;;;;;;15.21;57.35;100091.84;5021810;28;20021;-89
2022/05/05 00:14:24;;;;;;;11.07;7.05;;;;;;;15.08;57.64;100093.13;5040975;28;20036;-89
2022/05/05 00:16:53;;;;;;;10.32;7.13;;;;;;;15.08;57.41;100090.44;5040196;28;20032;-89
2022/05/05 00:19:19;;;;;;;9.43;7.00;;;;;;;15.06;57.04;100086.22;5038446;28;20039;-89
2022/05/05 00:21:44;;;;;;;10.57;7.22;;;;;;;15.05;57.63;100087.22;5038023;28;20028;-89
2022/05/05 00:24:11;;;;;;;10.68;7.10;;;;;;;15.08;57.15;100089.59;5038396;28;20047;-90
2022/05/05 00:26:36;;;;;;;10.85;7.00;;;;;;;15.08;57.81;100084.19;5038256;28;20031;-89
2022/05/05 00:29:02;;;;;;;10.40;7.10;;;;;;;15.02;57.78;100083.00;5038218;28;20116;-89
2022/05/05 00:31:27;;;;;;;11.10;7.65;;;;;;;15.00;57.91;100089.56;5037905;28;20021;-89
2022/05/05 00:33:53;;;;;;;9.80;7.07;;;;;;;14.99;57.85;100086.03;5021147;28;20095;-89
2022/05/05 00:36:18;;;;;;;12.00;7.72;;;;;;;14.84;57.76;100089.50;5021317;28;20451;-90
2022/05/05 00:38:44;;;;;;;10.27;6.97;;;;;;;14.79;58.20;100088.13;5037552;28;20108;-90
2022/05/05 00:41:09;;;;;;;10.88;7.53;;;;;;;14.84;57.70;100086.81;5037563;28;20540;-89
2022/05/05 00:43:35;;;;;;;10.80;7.45;;;;;;;14.80;58.16;100089.84;5021129;28;20025;-90
2022/05/05 00:46:02;;;;;;;9.65;6.72;;;;;;;14.84;57.62;100092.19;5021021;28;20025;-89
2022/05/05 00:48:27;;;;;;;9.50;7.13;;;;;;;14.78;57.76;100089.16;5020864;28;20025;-89
2022/05/05 00:50:54;;;;;;;11.50;7.15;;;;;;;14.75;57.92;100085.94;5037616;28;20021;-89
2022/05/05 00:53:19;;;;;;;10.68;7.32;;;;;;;14.75;58.12;100086.78;5037382;28;20077;-89
2022/05/05 00:55:45;;;;;;;11.80;7.50;;;;;;;14.72;58.45;100092.50;5020753;28;20059;-89
2022/05/05 00:58:11;;;;;;;10.00;7.30;;;;;;;14.71;58.21;100087.25;5020816;28;20467;-90
2022/05/05 01:00:45;;;;;;;10.23;7.60;;;;;;;14.61;57.80;100090.06;5037509;28;20029;-89
2022/05/05 01:03:11;;;;;;;10.00;7.13;;;;;;;14.69;57.88;100095.50;5037266;28;20032;-89
2022/05/05 01:05:38;;;;;;;12.98;7.85;;;;;;;14.63;58.04;100088.03;5036882;28;20029;-90
2022/05/05 01:08:04;;;;;;;10.23;7.10;;;;;;;14.66;58.33;100089.56;5037029;28;20104;-89
2022/05/05 01:10:29;;;;;;;11.35;7.40;;;;;;;14.57;57.92;100077.91;5036939;28;20454;-89
2022/05/05 01:12:55;;;;;;;11.50;7.47;;;;;;;14.45;58.04;100079.22;5037036;28;20021;-90
2022/05/05 01:15:21;;;;;;;9.05;7.03;;;;;;;14.49;58.61;100085.97;5037183;28;20454;-90
2022/05/05 01:17:47;;;;;;;10.52;7.10;;;;;;;14.54;58.43;100080.94;5037384;28;20021;-90
2022/05/05 01:20:14;;;;;;;12.20;7.30;;;;;;;14.49;58.92;100088.66;5037201;28;20552;-89
2022/05/05 01:22:40;;;;;;;10.80;7.28;;;;;;;14.49;58.40;100080.56;5053527;28;20027;-90
2022/05/05 01:30:33;;;;;;;11.88;7.53;;;;;;;14.46;58.63;100099.72;5039402;28;20405;-88
2022/05/05 01:32:59;;;;;;;10.30;7.20;;;;;;;14.48;59.04;100098.56;5020068;28;20024;-89
2022/05/05 01:35:24;;;;;;;10.43;7.45;;;;;;;14.44;58.77;100096.34;5036574;28;20028;-89
2022/05/05 01:37:50;;;;;;;9.40;7.28;;;;;;;14.45;58.90;100098.88;5036874;28;20049;-90
2022/05/05 01:40:16;;;;;;;9.45;7.22;;;;;;;14.43;59.03;100102.75;5036939;28;20032;-89
2022/05/05 01:42:41;;;;;;;11.32;7.97;;;;;;;14.33;59.39;100097.44;5020133;28;20051;-90
2022/05/05 01:45:07;;;;;;;10.55;7.30;;;;;;;14.33;59.47;100091.22;5019937;28;20025;-90
2022/05/05 01:47:32;;;;;;;10.13;7.18;;;;;;;14.32;59.05;100092.22;5020407;28;20021;-90
2022/05/05 01:49:59;;;;;;;12.30;7.20;;;;;;;14.38;59.95;100096.97;5036410;28;20467;-90
2022/05/05 01:52:24;;;;;;;11.30;7.72;;;;;;;14.37;59.47;100095.28;5036548;28;20509;-90
2022/05/05 01:54:49;;;;;;;9.88;7.47;;;;;;;14.36;59.61;100093.59;5036237;28;20045;-89
2022/05/05 01:57:15;;;;;;;10.38;7.40;;;;;;;14.37;59.77;100098.81;5036432;28;20025;-89
2022/05/05 01:59:40;;;;;;;9.82;6.32;;;;;;;14.44;59.38;100096.34;5019974;28;20029;-89
2022/05/05 02:02:05;;;;;;;8.73;7.43;;;;;;;14.45;59.49;100106.13;5036296;28;20548;-90
2022/05/05 02:04:31;;;;;;;9.75;7.03;;;;;;;14.37;59.01;100103.34;5019988;28;20025;-90
2022/05/05 02:06:56;;;;;;;11.45;7.20;;;;;;;14.34;59.03;100117.13;5036529;28;20025;-90
2022/05/05 02:09:22;;;;;;;14.65;8.00;;;;;;;14.29;59.44;100104.13;5036412;28;20031;-89
2022/05/05 02:11:47;;;;;;;11.02;7.53;;;;;;;14.29;59.39;100108.69;5036264;28;20116;-90
2022/05/05 02:14:13;;;;;;;9.27;7.30;;;;;;;14.24;59.58;100114.53;5019736;28;20083;-90
2022/05/05 02:16:38;;;;;;;11.25;6.63;;;;;;;14.30;60.10;100116.59;5020015;28;20021;-89
2022/05/05 02:19:04;;;;;;;10.02;7.13;;;;;;;14.26;59.91;100117.91;5036391;28;20029;-90
2022/05/05 02:21:29;;;;;;;10.85;7.60;;;;;;;14.24;60.07;100113.69;5020148;28;20025;-89
2022/05/05 02:23:54;;;;;;;8.07;6.47;;;;;;;14.24;59.58;100119.91;5019921;28;20116;-90
2022/05/05 02:26:20;;;;;;;8.10;7.00;;;;;;;14.21;59.93;100119.38;5036347;28;20059;-90
2022/05/05 02:28:45;;;;;;;8.93;7.10;;;;;;;14.22;60.04;100116.53;5019639;28;20029;-90
2022/05/05 02:31:11;;;;;;;10.38;7.57;;;;;;;14.21;59.85;100122.91;5019576;28;20029;-90
2022/05/05 02:33:36;;;;;;;9.63;7.07;;;;;;;14.16;60.24;100126.06;5019529;28;20044;-90
2022/05/05 02:38:47;;;;;;;11.32;7.63;;;;;;;14.22;59.63;100121.91;5053829;28;20037;-90
2022/05/05 02:41:13;;;;;;;10.00;7.53;;;;;;;14.23;59.99;100123.59;5020233;28;20032;-90
2022/05/05 02:43:38;;;;;;;10.30;7.72;;;;;;;14.21;60.63;100122.06;5036099;28;20386;-90
2022/05/05 02:46:03;;;;;;;10.95;8.00;;;;;;;14.19;59.96;100130.31;5019515;28;20056;-90
2022/05/05 02:48:29;;;;;;;8.57;7.03;;;;;;;14.15;60.79;100127.06;5019588;28;20026;-90
2022/05/05 02:50:54;;;;;;;9.95;7.47;;;;;;;14.13;60.29;100121.00;5019569;28;20131;-89
2022/05/05 02:56:16;;;;;;;10.30;6.93;;;;;;;14.07;60.06;100110.00;5038029;28;20044;-90
2022/05/05 02:58:41;;;;;;;11.70;7.70;;;;;;;14.07;60.27;100116.25;5040214;28;20029;-90
2022/05/05 03:01:08;;;;;;;10.57;6.88;;;;;;;14.06;60.63;100117.25;5023223;28;20024;-90
2022/05/05 03:03:34;;;;;;;11.25;7.80;;;;;;;14.04;60.12;100115.69;5023225;28;20036;-89
2022/05/05 03:06:01;;;;;;;11.60;7.70;;;;;;;14.01;60.58;100110.63;5039348;28;20021;-90
2022/05/05 03:08:26;;;;;;;10.00;7.15;;;;;;;14.03;60.51;100108.63;5039613;28;20021;-90
2022/05/05 03:10:51;;;;;;;9.45;7.22;;;;;;;14.05;60.46;100112.00;5039445;28;20040;-91
2022/05/05 03:13:17;;;;;;;10.52;7.55;;;;;;;14.02;60.57;100113.16;5039384;28;20415;-90
2022/05/05 03:15:43;;;;;;;10.40;7.55;;;;;;;13.97;60.64;100112.78;5056164;28;20021;-90
2022/05/05 03:18:08;;;;;;;9.68;7.55;;;;;;;13.89;60.63;100115.44;5023207;28;20057;-90
2022/05/05 03:20:34;;;;;;;10.88;7.50;;;;;;;13.90;60.10;100116.28;5023255;28;20111;-90
2022/05/05 03:22:59;;;;;;;10.32;7.78;;;;;;;13.90;60.57;100110.88;5039602;28;20029;-92
2022/05/05 03:25:25;;;;;;;10.70;7.93;;;;;;;13.85;60.47;100111.34;5039123;28;20021;-89
2022/05/05 03:27:53;;;;;;;11.48;7.95;;;;;;;13.69;60.45;100116.56;5023110;28;20452;-91
2022/05/05 03:30:18;;;;;;;10.88;7.68;;;;;;;13.79;60.84;100114.66;5039096;28;20112;-90
2022/05/05 03:32:44;;;;;;;11.52;7.88;;;;;;;13.71;60.55;100115.41;5022841;28;20029;-90
2022/05/05 03:35:10;;;;;;;11.02;8.35;;;;;;;13.66;60.68;100119.56;5039161;28;20021;-89
2022/05/05 03:37:35;;;;;;;10.75;8.02;;;;;;;13.71;60.95;100119.94;5022510;28;20087;-90
2022/05/05 03:40:01;;;;;;;11.48;8.02;;;;;;;13.75;60.69;100113.28;5039032;28;20107;-89
2022/05/05 03:42:26;;;;;;;11.65;8.52;;;;;;;13.73;60.69;100109.91;5022885;28;20024;-90
2022/05/05 03:44:51;;;;;;;11.23;8.18;;;;;;;13.72;60.75;100111.75;5038905;28;20021;-90
2022/05/05 03:47:17;;;;;;;12.07;8.32;;;;;;;13.72;60.55;100121.66;5022281;28;20029;-90
2022/05/05 03:49:42;;;;;;;14.77;9.45;;;;;;;13.75;61.13;100118.66;5022516;28;20039;-89
2022/05/05 03:52:07;;;;;;;13.57;8.93;;;;;;;13.75;61.14;100116.81;5038531;28;20037;-90
2022/05/05 03:54:33;;;;;;;15.63;9.35;;;;;;;13.70;60.83;100121.78;5038666;28;20099;-89
2022/05/05 03:56:58;;;;;;;12.45;8.60;;;;;;;13.71;60.76;100119.94;5021956;28;20024;-90
2022/05/05 03:59:24;;;;;;;12.13;8.63;;;;;;;13.68;60.23;100120.25;5038160;28;20074;-89
2022/05/05 04:01:49;;;;;;;12.23;8.13;;;;;;;13.71;61.05;100126.16;5038384;28;20021;-90
2022/05/05 04:04:15;;;;;;;11.45;8.57;;;;;;;13.66;60.71;100125.78;5022586;28;20036;-90
2022/05/05 04:06:41;;;;;;;12.18;9.00;;;;;;;13.64;60.62;100121.56;5037883;28;20021;-90
2022/05/05 04:09:06;;;;;;;12.38;8.57;;;;;;;13.62;60.78;100131.63;5021970;28;20032;-91
2022/05/05 04:11:32;;;;;;;11.32;8.65;;;;;;;13.62;60.83;100127.09;5038354;28;20052;-90
2022/05/05 04:13:58;;;;;;;11.60;8.10;;;;;;;13.63;60.54;100127.94;5022034;28;20021;-90
2022/05/05 04:16:23;;;;;;;11.05;7.78;;;;;;;13.63;60.71;100133.31;5038698;28;20029;-91
2022/05/05 04:18:49;;;;;;;10.68;7.70;;;;;;;13.63;60.40;100141.38;5038568;28;20463;-92
2022/05/05 04:21:14;;;;;;;14.90;8.73;;;;;;;13.55;61.07;100137.59;5039061;28;20112;-91
2022/05/05 04:23:40;;;;;;;10.20;7.70;;;;;;;13.56;60.90;100143.81;5038504;28;20025;-91
2022/05/05 04:26:06;;;;;;;11.02;7.90;;;;;;;13.52;60.75;100148.66;5021661;28;20035;-90
2022/05/05 04:28:31;;;;;;;11.35;8.07;;;;;;;13.52;61.21;100147.81;5022267;28;20060;-91
2022/05/05 04:30:57;;;;;;;11.75;7.72;;;;;;;13.51;61.07;100149.66;5038503;28;20029;-92
2022/05/05 04:33:22;;;;;;;11.27;8.05;;;;;;;13.54;60.81;100149.34;5022133;28;20154;-92
2022/05/05 04:35:49;;;;;;;10.55;7.88;;;;;;;13.54;60.52;100154.72;5038104;28;20017;-90
2022/05/05 04:38:14;;;;;;;12.20;7.75;;;;;;;13.48;60.51;100154.50;5037744;28;20378;-90
2022/05/05 04:40:40;;;;;;;12.05;7.78;;;;;;;13.43;61.35;100152.25;5037784;28;20056;-92
2022/05/05 04:43:06;;;;;;;12.80;8.10;;;;;;;13.45;61.18;100163.69;5037901;28;20029;-90
2022/05/05 04:45:31;;;;;;;12.35;7.97;;;;;;;13.43;61.31;100159.47;5021157;28;20021;-91
2022/05/05 04:47:56;;;;;;;12.65;8.32;;;;;;;13.44;60.74;100155.78;5037931;28;20032;-90
2022/05/05 04:50:23;;;;;;;10.80;7.70;;;;;;;13.47;60.79;100159.03;5037943;28;20052;-92
2022/05/05 04:52:48;;;;;;;11.80;8.40;;;;;;;13.44;60.92;100158.47;5037839;28;20033;-92
2022/05/05 04:55:13;;;;;;;12.88;9.32;;;;;;;13.46;61.24;100165.38;5038306;28;20124;-91
2022/05/05 04:57:39;;;;;;;13.88;8.40;;;;;;;13.47;60.90;100164.41;5037770;28;20482;-92
2022/05/05 05:00:06;;;;;;;13.68;7.97;;;;;;;13.46;61.30;100176.13;5037795;28;20143;-90
2022/05/05 05:02:32;;;;;;;11.05;7.85;;;;;;;13.52;61.44;100169.31;5037457;28;20025;-90
2022/05/05 05:04:57;;;;;;;11.27;8.43;;;;;;;13.54;61.13;100168.16;5037694;28;20025;-91
2022/05/05 05:07:22;;;;;;;13.35;8.52;;;;;;;13.52;61.70;100172.00;5037397;28;20032;-90
2022/05/05 05:09:49;;;;;;;14.15;8.73;;;;;;;13.55;61.16;100182.44;5021510;28;20080;-90
2022/05/05 05:12:15;;;;;;;12.95;8.93;;;;;;;13.53;61.37;100179.91;5037450;28;20057;-90
2022/05/05 05:14:40;;;;;;;12.10;9.00;;;;;;;13.59;61.77;100180.28;5037780;28;20458;-90
2022/05/05 05:17:06;;;;;;;13.45;9.45;;;;;;;13.58;61.75;100178.59;5037067;28;20032;-90
2022/05/05 05:19:32;;;;;;;15.02;9.77;;;;;;;13.62;62.23;100194.28;5037332;28;20037;-91
2022/05/05 05:21:57;;;;;;;14.27;9.75;;;;;;;13.63;62.35;100187.91;5037655;28;20033;-91
2022/05/05 05:24:22;;;;;;;14.38;10.00;;;;;;;13.66;62.05;100192.97;5020720;28;20035;-90
2022/05/05 05:26:48;;;;;;;13.40;9.68;;;;;;;13.71;62.22;100189.81;5037375;28;20358;-91
2022/05/05 05:29:13;;;;;;;15.15;10.05;;;;;;;13.73;62.33;100190.56;5020801;28;20032;-91
2022/05/05 05:31:39;;;;;;;16.67;10.55;;;;;;;13.75;62.69;100197.47;5020481;28;20112;-89
2022/05/05 05:34:04;;;;;;;15.68;10.93;;;;;;;13.79;62.61;100198.84;5020481;28;20083;-90
2022/05/05 05:36:30;;;;;;;16.85;10.77;;;;;;;13.81;62.77;100204.91;5036763;28;20021;-91
2022/05/05 05:38:55;;;;;;;19.02;11.20;;;;;;;13.83;62.89;100197.53;5020641;28;20043;-91
2022/05/05 05:41:21;;;;;;;16.83;12.00;;;;;;;13.85;63.05;100197.38;5020551;28;20036;-92
2022/05/05 05:43:46;;;;;;;17.77;11.02;;;;;;;13.90;63.10;100205.84;5020244;28;20040;-91
2022/05/05 05:46:11;;;;;;;16.10;11.18;;;;;;;13.89;63.47;100201.47;5037162;28;20025;-92
2022/05/05 05:49:16;;;;;;;18.70;11.65;;;;;;;13.92;63.34;100214.59;5020265;28;20116;-91
2022/05/05 05:51:42;;;;;;;16.50;10.90;;;;;;;13.96;63.12;100210.59;5037294;28;20467;-90
2022/05/05 05:54:08;;;;;;;16.17;11.43;;;;;;;13.98;63.72;100207.75;5036475;28;20052;-91
2022/05/05 05:56:33;;;;;;;19.13;11.90;;;;;;;14.02;63.90;100215.34;5020410;28;20052;-90
2022/05/05 05:59:01;;;;;;;16.60;12.02;;;;;;;14.03;63.45;100211.66;5036495;28;20027;-91
2022/05/05 06:03:53;;;;;;;23.67;12.68;;;;;;;14.05;63.59;100211.50;5020303;28;20027;-92
2022/05/05 06:04:12;;;;;;;17.90;12.32;;;;;;;14.10;64.11;100210.06;5039868;28;20029;-91
2022/05/05 06:10:42;;;;;;;21.15;13.73;;;;;;;14.10;64.63;100218.13;5054672;28;20048;-91
2022/05/05 06:13:07;;;;;;;18.90;12.00;;;;;;;14.09;64.44;100220.97;5036582;28;20029;-92
2022/05/05 06:15:33;;;;;;;17.00;12.52;;;;;;;14.13;64.83;100217.81;5019803;28;20043;-92
2022/05/05 06:17:58;;;;;;;19.85;14.18;;;;;;;14.15;64.38;100217.66;5052732;28;20032;-92
2022/05/05 06:20:23;;;;;;;18.52;12.65;;;;;;;14.20;64.97;100222.59;5036310;28;20037;-89
2022/05/05 06:22:52;;;;;;;18.45;12.88;;;;;;;14.26;64.55;100214.75;5020131;28;20352;-91
2022/05/05 06:25:19;;;;;;;;;;;;;;;14.36;64.13;100212.81;5037052;28;20018;-90
2022/05/05 06:27:45;;;;;;;18.33;13.45;;;;;;;14.34;64.35;100213.97;5036943;28;20000;-92
2022/05/05 06:30:13;;;;;;;20.27;13.80;;;;;;;14.35;64.35;100210.28;5040018;28;20057;-90
2022/05/05 06:32:38;;;;;;;23.45;15.45;;;;;;;14.35;65.23;100219.19;5024377;28;20021;-91
2022/05/05 06:35:04;;;;;;;20.80;14.75;;;;;;;14.41;65.08;100223.09;5023900;28;20374;-91
2022/05/05 06:37:29;;;;;;;19.92;15.43;;;;;;;14.44;64.53;100212.91;5040353;28;20455;-91
2022/05/05 06:39:55;;;;;;;21.50;15.15;;;;;;;14.49;64.66;100224.03;5023889;28;20028;-91
2022/05/05 06:42:20;;;;;;;21.98;15.50;;;;;;;14.54;65.35;100215.50;5039998;28;20035;-91
2022/05/05 06:44:45;;;;;;;20.38;15.55;;;;;;;14.55;65.10;100222.56;5023418;28;20532;-92
2022/05/05 06:47:11;;;;;;;21.60;16.10;;;;;;;14.51;66.00;100231.97;5040392;28;20052;-94
2022/05/05 06:49:36;;;;;;;23.05;16.45;;;;;;;14.51;66.41;100229.28;5023790;28;20056;-90
2022/05/05 06:52:02;;;;;;;23.20;16.17;;;;;;;14.60;65.77;100222.09;5020515;28;20035;-89
2022/05/05 06:54:27;;;;;;;24.48;17.20;;;;;;;14.61;66.38;100229.16;5022310;28;20116;-87
2022/05/05 06:56:54;;;;;;;27.45;17.30;;;;;;;14.67;66.82;100233.97;5021449;28;20052;-88
2022/05/05 06:59:19;;;;;;;25.92;17.52;;;;;;;14.65;66.87;100239.47;5018144;28;20033;-88
2022/05/05 07:01:53;;;;;;;24.38;17.42;;;;;;;14.61;67.33;100238.09;5039480;28;20017;-87
2022/05/05 07:07:04;;;;;;;29.40;19.83;;;;;;;14.68;66.71;100239.19;5028468;28;20033;-87
2022/05/05 07:12:14;;;;;;;27.30;18.70;;;;;;;14.74;66.43;100251.16;5022354;28;20040;-89
2022/05/05 07:14:39;;;;;;;31.42;20.83;;;;;;;14.78;65.52;100248.00;5012922;28;20033;-88
2022/05/05 07:17:05;;;;;;;29.42;20.13;;;;;;;14.77;66.17;100249.00;5022518;28;20013;-88
2022/05/05 07:19:30;;;;;;;28.45;21.00;;;;;;;14.73;65.54;100249.47;5022165;28;20111;-89
2022/05/05 07:21:55;;;;;;;28.48;20.13;;;;;;;14.75;66.12;100245.63;5022624;28;20047;-88
2022/05/05 07:24:23;;;;;;;29.52;20.98;;;;;;;14.75;65.97;100253.69;5022400;28;20029;-88
2022/05/05 07:26:48;;;;;;;31.08;20.90;;;;;;;14.73;65.91;100258.41;5022814;28;20392;-88
2022/05/05 07:29:15;;;;;;;27.73;20.15;;;;;;;14.79;65.83;100256.91;5040614;28;20021;-88
2022/05/05 07:31:41;;;;;;;27.67;19.55;;;;;;;14.81;65.98;100260.31;5042982;28;20359;-88
2022/05/05 07:34:07;;;;;;;30.20;20.40;;;;;;;14.83;65.40;100260.16;5046877;28;20032;-88
2022/05/05 07:36:32;;;;;;;28.17;20.77;;;;;;;14.84;65.44;100272.59;5023054;28;20478;-89
2022/05/05 07:38:58;;;;;;;30.63;20.30;;;;;;;14.86;65.05;100267.91;5022003;28;20037;-89
2022/05/05 07:41:25;;;;;;;31.52;21.67;;;;;;;14.86;64.93;100275.97;5038142;28;20159;-88
2022/05/05 07:43:51;;;;;;;27.88;20.45;;;;;;;14.88;65.02;100271.28;5022420;28;20021;-89
2022/05/05 07:46:19;;;;;;;33.83;22.13;;;;;;;14.89;64.73;100271.13;5022630;28;20025;-89
2022/05/05 07:48:45;;;;;;;32.95;22.30;;;;;;;14.87;65.23;100275.81;5022196;28;20380;-88
2022/05/05 07:51:11;;;;;;;34.22;23.02;;;;;;;14.83;65.66;100270.91;5002819;28;20040;-88
2022/05/05 07:53:36;;;;;;;32.28;21.67;;;;;;;14.84;65.34;100275.28;5002400;28;20052;-88
2022/05/05 07:56:03;;;;;;;33.95;23.05;;;;;;;14.79;65.05;100271.22;5051596;28;20040;-88
2022/05/05 07:58:28;;;;;;;34.60;23.70;;;;;;;14.88;65.21;100269.44;5041528;28;20053;-88
2022/05/05 08:00:54;;;;;;;34.28;23.05;;;;;;;14.85;65.22;100285.91;5021728;28;20087;-88
2022/05/05 08:03:19;;;;;;;32.33;21.83;;;;;;;14.86;64.87;100284.06;5021946;28;20038;-88
2022/05/05 08:05:45;;;;;;;31.95;21.30;;;;;;;14.94;65.17;100284.13;5021808;28;20025;-88
2022/05/05 08:08:10;;;;;;;37.63;24.08;;;;;;;14.93;65.17;100280.56;5021802;28;20086;-89
2022/05/05 08:10:36;;;;;;;33.95;23.40;;;;;;;14.93;65.45;100291.34;5021775;28;20402;-87
2022/05/05 08:13:01;;;;;;;33.45;23.63;;;;;;;14.90;65.05;100290.81;5032100;28;20377;-88
2022/05/05 08:15:26;;;;;;;31.25;22.17;;;;;;;14.90;65.09;100294.34;5025120;28;20025;-88
2022/05/05 08:17:52;;;;;;;34.78;23.52;;;;;;;14.90;65.95;100294.34;5037549;28;20047;-88
2022/05/05 08:20:17;;;;;;;31.08;21.88;;;;;;;14.97;66.30;100292.72;5021176;28;20025;-88
2022/05/05 08:22:43;;;;;;;37.28;23.80;;;;;;;14.97;65.63;100300.81;5041149;28;20029;-96
2022/05/05 08:30:38;;;;;;;30.90;21.63;;;;;;;15.03;65.66;100293.94;5042008;28;20438;-95
2022/05/05 08:33:03;;;;;;;32.67;21.92;;;;;;;15.09;66.21;100301.38;5027055;28;20029;-85
2022/05/05 08:38:04;;;;;;;31.55;23.77;;;;;;;15.11;65.75;100305.59;5090383;23;20031;-86
2022/05/05 08:43:55;;;;;;;33.80;23.05;;;;;;;15.14;65.41;100312.56;5090158;22;20063;-86
2022/05/05 08:46:35;;;;;;;35.75;23.95;;;;;;;15.23;65.14;100316.16;5138523;22;20048;-85
2022/05/05 08:49:05;;;;;;;33.33;22.88;;;;;;;15.17;65.74;100309.53;5058731;28;20032;-85
2022/05/05 08:51:42;;;;;;;35.33;23.88;;;;;;;15.22;65.23;100315.31;5036005;28;20048;-85
2022/05/05 08:54:12;;;;;;;39.63;27.33;;;;;;;15.15;66.06;100316.94;5052802;28;20698;-86
2022/05/05 08:56:38;;;;;;;39.25;27.67;;;;;;;15.19;65.16;100317.47;5056169;28;20069;-85
2022/05/05 08:59:04;;;;;;;38.55;27.58;;;;;;;15.13;65.38;100321.63;5042449;28;20056;-90
2022/05/05 09:01:36;;;;;;;41.08;28.50;;;;;;;15.17;65.33;100325.72;5036271;28;20017;-90
2022/05/05 09:04:03;;;;;;;42.10;28.83;;;;;;;15.14;66.06;100325.19;5036997;28;20017;-88
2022/05/05 09:06:43;;;;;;;40.67;28.67;;;;;;;15.08;65.60;100326.63;5027867;28;20025;-88
2022/05/05 09:09:24;;;;;;;40.38;28.05;;;;;;;15.14;66.02;100323.34;5023248;28;20027;-92
2022/05/05 09:12:14;;;;;;;40.10;27.38;;;;;;;15.23;65.41;100322.38;5075997;28;20032;-85
2022/05/05 09:14:56;;;;;;;36.10;25.25;;;;;;;15.28;65.64;100327.28;5053981;28;20378;-85
2022/05/05 09:17:37;;;;;;;37.75;26.13;;;;;;;15.32;65.00;100325.97;5037971;28;20492;-85
2022/05/05 09:20:06;;;;;;;38.03;26.42;;;;;;;15.40;64.76;100334.09;5032742;28;20029;-84
2022/05/05 09:22:31;;;;;;;;;;;;;;;15.29;64.85;100323.59;5034871;28;20052;-86
2022/05/05 09:25:12;;;;;;;34.15;24.15;;;;;;;15.23;65.01;100326.91;5049382;28;19948;-85
2022/05/05 09:27:37;;;;;;;35.50;25.67;;;;;;;15.14;64.76;100330.56;5041683;28;20025;-91
2022/05/05 09:30:13;;;;;;;36.95;26.02;;;;;;;15.11;64.82;100332.53;5034974;28;20029;-85
2022/05/05 09:32:40;;;;;;;34.80;24.48;;;;;;;15.16;65.25;100334.78;5051672;28;20060;-85
2022/05/05 09:35:17;;;;;;;32.92;24.02;;;;;;;15.24;65.23;100323.22;5053537;28;20100;-85
2022/05/05 09:38:05;;;;;;;29.27;22.83;;;;;;;15.27;65.19;100331.00;5035804;28;20029;-84
2022/05/05 09:40:31;;;;;;;29.95;21.45;;;;;;;15.24;64.75;100324.06;5055064;28;20033;-86
2022/05/05 09:42:56;;;;;;;30.63;21.95;;;;;;;15.29;64.39;100332.53;5055675;28;20092;-87
2022/05/05 09:45:26;;;;;;;32.72;23.42;;;;;;;15.29;65.04;100329.81;5054462;28;20028;-85
2022/05/05 09:48:03;;;;;;;31.50;21.85;;;;;;;15.29;65.06;100329.81;5054006;28;20045;-86
2022/05/05 09:50:31;;;;;;;29.80;21.40;;;;;;;15.27;64.73;100339.06;5058049;28;20041;-85
2022/05/05 10:01:38;;;;;;;25.30;18.58;;;;;;;15.51;64.63;100347.28;995577;26;20332;-86
2022/05/05 10:04:05;;;;;;;26.95;20.05;;;;;;;15.51;63.80;100343.75;5075559;28;20040;-85
2022/05/05 10:06:35;;;;;;;27.48;18.98;;;;;;;15.60;64.17;100350.91;5058255;28;20019;-87
2022/05/05 10:09:06;;;;;;;26.65;19.05;;;;;;;15.70;64.65;100343.56;5059303;28;20025;-85
2022/05/05 10:11:32;;;;;;;23.77;17.60;;;;;;;15.73;64.71;100343.25;5072745;28;20020;-86
2022/05/05 10:14:00;;;;;;;24.08;18.45;;;;;;;15.72;64.36;100339.72;5081622;23;20064;-90
2022/05/05 10:16:26;;;;;;;25.17;18.57;;;;;;;15.74;63.81;100339.53;5054408;28;20029;-89
2022/05/05 10:18:52;;;;;;;31.52;21.98;;;;;;;15.74;64.00;100334.16;5056399;28;20025;-93
2022/05/05 10:21:23;;;;;;;32.97;24.83;;;;;;;15.72;63.17;100338.84;5018774;28;20031;-89
2022/05/05 10:24:02;;;;;;;32.22;23.35;;;;;;;15.72;62.78;100346.94;5036505;28;20055;-92
2022/05/05 10:26:28;;;;;;;29.77;22.42;;;;;;;15.69;63.47;100345.41;5019185;28;20029;-86
2022/05/05 10:28:53;;;;;;;30.10;22.27;;;;;;;15.68;62.85;100343.72;5048670;28;20379;-90
2022/05/05 10:31:31;;;;;;;33.28;24.02;;;;;;;15.65;63.06;100340.50;5036741;28;20029;-95
2022/05/05 10:34:02;;;;;;;32.38;22.95;;;;;;;15.62;62.60;100339.00;5052837;28;20025;-90
2022/05/05 10:36:28;;;;;;;31.00;21.85;;;;;;;15.63;63.33;100337.13;5033256;28;20063;-93
2022/05/05 10:38:54;;;;;;;26.58;19.38;;;;;;;15.70;62.87;100341.72;5020277;28;20017;-86
2022/05/05 10:41:40;;;;;;;26.85;18.85;;;;;;;15.78;63.43;100340.91;5027957;28;20493;-87
2022/05/05 10:44:22;;;;;;;25.52;20.42;;;;;;;15.79;63.33;100337.19;5025348;28;20456;-86
2022/05/05 10:47:05;;;;;;;26.27;20.95;;;;;;;15.82;63.61;100342.28;5047190;28;20052;-87
2022/05/05 10:49:34;;;;;;;25.17;19.52;;;;;;;15.85;63.30;100333.00;5047384;28;20079;-87
2022/05/05 10:52:12;;;;;;;27.25;20.40;;;;;;;15.88;62.38;100335.38;5048532;28;20067;-86
2022/05/05 10:54:44;;;;;;;31.05;21.60;;;;;;;15.88;62.20;100335.38;5047561;28;20270;-85
2022/05/05 10:57:25;;;;;;;25.90;19.55;;;;;;;15.87;61.68;100328.28;5024294;28;20057;-86
2022/05/05 11:00:08;;;;;;;24.15;18.58;;;;;;;15.91;62.29;100338.59;5049355;28;20048;-89
2022/05/05 11:02:35;;;;;;;23.05;18.23;;;;;;;15.91;61.46;100335.06;5047495;28;20025;-89
2022/05/05 11:05:23;;;;;;;26.55;18.75;;;;;;;15.92;61.63;100328.66;5030670;28;20056;-89
2022/05/05 11:07:51;;;;;;;23.08;17.40;;;;;;;15.90;59.91;100336.91;5045527;28;20386;-89
2022/05/05 11:11:40;;;;;;;21.67;16.95;;;;;;;15.95;60.38;100344.50;5030458;28;20025;-88
2022/05/05 11:13:40;;;;;;;20.00;15.10;;;;;;;15.98;59.93;100336.09;5042977;28;20453;-90
2022/05/05 11:22:09;;;;;;;17.17;13.85;;;;;;;16.20;59.47;100334.66;5041323;28;20445;-91
2022/05/05 11:24:35;;;;;;;16.67;13.10;;;;;;;16.22;57.20;100333.47;5031884;28;20387;-90
2022/05/05 11:27:01;;;;;;;17.80;14.77;;;;;;;16.14;56.92;100338.00;5054206;28;20017;-89
2022/05/05 11:29:32;;;;;;;16.70;12.43;;;;;;;16.12;57.58;100332.78;5037664;28;20045;-91
2022/05/05 11:32:00;;;;;;;20.70;15.38;;;;;;;16.10;58.32;100336.66;5040758;28;20033;-92
2022/05/05 11:34:33;;;;;;;24.15;18.33;;;;;;;16.15;58.44;100335.16;5028679;28;20021;-91
2022/05/05 11:37:02;;;;;;;23.13;16.77;;;;;;;16.14;59.08;100324.53;5037269;28;20025;-90
2022/05/05 11:39:31;;;;;;;20.40;15.55;;;;;;;16.15;58.84;100331.59;5037401;28;20025;-90
2022/05/05 11:42:06;;;;;;;23.75;18.73;;;;;;;16.18;59.18;100336.69;5034337;28;20056;-90
2022/05/05 11:44:40;;;;;;;28.77;21.38;;;;;;;16.20;60.27;100332.81;5049859;28;20021;-90
2022/05/05 11:47:20;;;;;;;26.85;20.90;;;;;;;16.16;60.72;100338.69;5046048;28;20079;-90
2022/05/05 11:49:50;;;;;;;27.85;20.85;;;;;;;16.14;59.87;100327.22;5035109;28;20389;-90
2022/05/05 11:52:25;;;;;;;25.58;20.00;;;;;;;16.12;60.42;100335.47;5037043;28;20324;-91
2022/05/05 11:54:55;;;;;;;26.73;18.63;;;;;;;16.14;59.58;100333.47;5038182;28;20025;-90
2022/05/05 11:57:34;;;;;;;24.52;18.98;;;;;;;16.13;59.95;100325.53;5036495;28;20087;-89
2022/05/05 12:02:44;;;;;;;23.50;17.92;;;;;;;16.11;60.50;100330.25;5053067;28;20317;-90
2022/05/05 12:05:10;;;;;;;22.52;17.52;;;;;;;16.11;59.25;100324.84;5053132;28;20029;-88
2022/05/05 12:07:35;;;;;;;22.27;17.52;;;;;;;16.10;59.29;100328.56;5053899;28;20052;-90
2022/05/05 12:10:08;;;;;;;21.00;15.40;;;;;;;16.09;58.68;100329.56;5053623;28;20025;-92